• Join FlightAware (Why Join?)
  • Login
  • US Flag 
04:53AM EST


 

Airport Tracker/Info


-or-


 

Live Flight TrackerFlight Track Log ✈ SWA534 ✈ 18-Aug-2013 ✈ KOAK - KPDX

Flight Track Log - Related Links

Times and Time Zones

All times are in EDT time to prevent confusion due to time zone crossing. See the SWA534 flight status page for this flight to view local times or setup timezone preferences in your user account.

Time Position Orientation Groundspeed Altitude Reporting Facility
EDT Latitude Longitude Course Direction KTS MPH feet Rate Location/Type
08:27PM 37.7333 -122.2667 336° Northwest 178 205 1,300  Level Northern Cal TRACON
08:29PM 37.8300 -122.3200 336° Northwest 231 266 4,800 1,980 Climbing Oakland Center
08:30PM 37.9039 -122.2942 15° North 268 308 7,400 2,520 Climbing Oakland Center
08:31PM 37.9822 -122.2703 14° North 288 331 10,000 2,160 Climbing Oakland Center
08:32PM 38.0936 -122.2394 12° North 351 404 11,900 1,980 Climbing Oakland Center
08:33PM 38.1928 -122.2108 13° North 368 423 14,100 2,220 Climbing Oakland Center
08:34PM 38.2942 -122.1856 11° North 372 428 16,500 2,160 Climbing Oakland Center
08:35PM 38.3992 -122.1581 12° North 384 442 18,500 1,800 Climbing Oakland Center
08:36PM 38.5106 -122.1511 North 405 466 20,200 1,560 Climbing Oakland Center
08:37PM 38.6261 -122.1633 355° North 416 479 21,800 1,800 Climbing Oakland Center
08:38PM 38.7603 -122.1772 355° North 431 496 23,900 1,740 Climbing Oakland Center
08:39PM 38.8803 -122.1894 355° North 431 496 25,400 1,380 Climbing Oakland Center
08:40PM 39.0028 -122.2019 355° North 439 505 26,800 1,440 Climbing Oakland Center
08:41PM 39.1281 -122.2150 355° North 448 516 28,400 1,560 Climbing Oakland Center
08:42PM 39.2503 -122.2269 356° North 441 507 30,000 1,440 Climbing Oakland Center
08:43PM 39.3722 -122.2408 355° North 440 506 31,400 1,560 Climbing Oakland Center
08:44PM 39.5150 -122.2522 356° North 430 495 33,300 1,260 Climbing Oakland Center
08:45PM 39.6322 -122.2639 356° North 424 488 34,000 1,140 Climbing Oakland Center
08:46PM 39.7497 -122.2758 356° North 424 488 35,700 960 Climbing Oakland Center
08:47PM 39.8639 -122.2878 355° North 416 479 36,000 120 Climbing Oakland Center
08:48PM 39.9772 -122.2994 355° North 411 473 36,000  Level Oakland Center
08:49PM 40.0986 -122.3136 355° North 425 489 36,000  Level Oakland Center
08:50PM 40.2114 -122.3264 355° North 423 487 36,000  Level Oakland Center
08:52PM 40.3425 -122.3369 356° North 430 495 36,000  Level Oakland Center
08:53PM 40.4581 -122.3486 356° North 420 483 36,000  Level Oakland Center
08:54PM 40.5731 -122.3603 356° North 416 479 36,000  Level Oakland Center
08:55PM 40.6883 -122.3722 356° North 416 479 36,000  Level Oakland Center
08:56PM 40.8036 -122.3828 356° North 417 480 36,000  Level Oakland Center
08:57PM 40.9406 -122.3981 355° North 412 474 36,000  Level Oakland Center
08:58PM 41.0558 -122.4106 355° North 415 478 36,000  Level Oakland Center
08:59PM 41.1708 -122.4250 355° North 417 480 36,000  Level Oakland Center
09:00PM 41.2869 -122.4381 355° North 418 481 36,000  Level Oakland Center
09:01PM 41.3878 -122.4464 356° North 413 475 36,000  Level Oakland Center
09:02PM 41.5267 -122.4606 356° North 416 479 36,000  Level Oakland Center
09:03PM 41.6431 -122.4756 354° North 419 482 36,000  Level Oakland Center
09:04PM 41.7586 -122.4881 355° North 416 479 36,000  Level Oakland Center
09:05PM 41.8758 -122.5014 355° North 419 482 36,000  Level Oakland Center
09:06PM 41.9922 -122.5139 355° North 418 481 36,000  Level Oakland Center
09:07PM 42.1094 -122.5269 355° North 418 481 36,000  Level Oakland Center
09:08PM 42.2269 -122.5394 355° North 421 484 36,000  Level Oakland Center
09:09PM 42.3917 -122.5536 356° North 421 484 36,000  Level Seattle Center
09:10PM 42.5092 -122.5658 356° North 422 486 36,000  Level Seattle Center
09:11PM 42.6261 -122.5786 355° North 422 486 36,000  Level Seattle Center
09:12PM 42.7578 -122.5928 355° North 423 487 36,000  Level Seattle Center
09:13PM 42.8747 -122.6053 356° North 425 489 36,000  Level Seattle Center
09:14PM 42.9914 -122.6192 355° North 423 487 36,000  Level Seattle Center
09:15PM 43.1100 -122.6314 356° North 427 491 36,000  Level Seattle Center
09:16PM 43.2286 -122.6456 355° North 429 494 36,000  Level Seattle Center
09:17PM 43.3467 -122.6592 355° North 427 491 36,000  Level Seattle Center
09:19PM 43.4644 -122.6722 355° North 427 491 36,000  Level Seattle Center
09:20PM 43.6083 -122.6883 355° North 433 498 36,000  Level Seattle Center
09:21PM 43.7272 -122.7031 355° North 432 497 36,000 -540 Level Seattle Center
09:22PM 43.8447 -122.7147 356° North 426 490 35,000 -1,920 Descending Seattle Center
09:23PM 43.9661 -122.7308 355° North 437 503 32,100 -2,640 Descending Seattle Center
09:24PM 44.0864 -122.7439 356° North 436 502 29,700 -2,340 Descending Seattle Center
09:25PM 44.2022 -122.7478 359° North 424 488 27,400 -2,220 Descending Seattle Center
09:26PM 44.3158 -122.7356 North 416 479 25,200 -2,220 Descending Seattle Center
09:27PM 44.4278 -122.7250 North 408 470 23,000 -2,220 Descending Seattle Center
09:28PM 44.5328 -122.7147 North 394 453 20,800 -2,340 Descending Seattle Center
09:29PM 44.6575 -122.7025 North 382 440 18,300 -2,160 Descending Seattle Center
09:29PM 44.7319 -122.6958 North 367 422 16,900 -1,800 Descending Seattle Center
09:31PM 44.8703 -122.6828 North 354 407 14,500 -1,740 Descending Seattle Center
09:32PM 44.9489 -122.6756 North 330 380 13,100 -1,800 Descending Seattle Center
09:33PM 45.0442 -122.6647 North 325 374 11,100 -1,560 Descending Seattle Center
09:34PM 45.1294 -122.6578 North 307 353 10,000 -1,320 Descending Seattle Center
09:35PM 45.2075 -122.6261 16° North 298 343 8,500 -1,500 Descending Seattle Center
09:36PM 45.2783 -122.5697 29° Northeast 293 337 7,000 -1,440 Descending Seattle Center
09:37PM 45.3417 -122.5194 29° Northeast 289 333 5,600 -1,320 Descending Seattle Center
09:38PM 45.4167 -122.4608 29° Northeast 260 299 4,400 -1,140 Descending Seattle Center
09:39PM 45.4750 -122.4131 30° Northeast 237 273 3,400 -1,080 Descending Seattle Center
09:40PM 45.5267 -122.4306 347° North 211 243 2,200 -1,020 Descending Seattle Center
09:41PM 45.5486 -122.4806 302° West 148 170 1,400 -780 Descending Seattle Center
09:42PM 45.5672 -122.5286 299° West 138 159 700 -540 Descending Seattle Center
09:43PM 45.5875 -122.5758 302° West 154 177 300 -420 Descending Seattle Center